Aérodrome :
LOGIN :

S'inscrire | Disclaimer

   EN    FR    IT 

 










Légende :    VFR   VFR Marginal   IFR   IFR Intensif   IFR Très Intensif
Visi : 
Plafond : 
>= 8 km
>= 3000ft
5 à 8 km
1000 à 3000 ft
1500m à 5 km
500 à 1000 ft
800 à 1500m
200 à 500 ft
< 800m
< 200 ft
Symboles :   Orages  Brouillard  Fortes neiges  Fortes précipitations  Vent > 20 kt
SIGMETs :   Divers  Orages  Givrage  Turbulence  Onde Orograph.  Cendres Volcan.






- Altitude de l'aérodrome : 614 ft
- Code IATA : CRL


EBCI - Charleroi

DERNIER METAR :
  • 250420Z VRB02KT 0100 R24/0500N FG BKN001 01/01 Q1021 NOSIG

METARs EXPIRÉS :
  • 250350Z 18003KT 0100 R24/0550N FG BKN001 01/01 Q1021 NOSIG
  • 250320Z 17004KT 140V200 0100 R24/0600N FG BKN001 01/00 Q1021 NOSIG
  • 250250Z 17002KT 0100 R24/0500N FG BKN001 01/01 Q1021 NOSIG
  • 250220Z VRB01KT 0100 R24/0550N FG BKN001 BKN003 00/M00 Q1022 NOSIG
  • 250150Z VRB01KT 0900 R24/P2000N FG BKN002 BKN003 00/M00 Q1022 NOSIG

TAF TAF EBCI
Valide du 25 à 00h jusqu'au 26 à 06h UTC


242300Z 2500/2606 21003KT 1500 BR BKN003
PROB40
TEMPO 2500/2513 0400 FZFG FG BKN001
TEMPO 2514/2517 3500 BR BKN006
BECMG 2518/2520 1200 BCFG
PROB30
TEMPO 2520/2524 0600 FG VV002
TEMPO 2600/2606 3000 BR SCT003 BKN040



MET'MAP, la Météo Aéronautique d'un coup d'oeil ! - Copyright ORBIFLY Décembre 2007 - Disclaimer

ORBIFLY MET'MAP TEAM :

Programmation & Développement : Alexandra Zaïnal
Sur une idée originale de : Baudouin d'Aumeries
Assistance à la programmation : Marc-Olivier Méhu
Soutien technique & logistique : Manuel Goepfert

Contact : metmap@orbifly.com




SOURCES & CREDITS :

   NOAA